Lebanon, WI (53047)

8:24 AM CDT on September 01, 2015 (GMT -0500)
K9LUK's Station | | Change Station
CLOSE
Current Station
Personal Weather Station
Location: Watertown, WI
Elevation: 834 ft
Nearby Weather Stations

Elev 834 ft 43.20 °N, 88.75 °W | Updated 38 seconds ago

Clear
Clear
72.0 °F
Feels Like 72.0 °F
N
0.0
Wind Variable Wind from SSW
Gusts 6.0 mph

Today
High -- | Low -- °F
--% Chance of Precip.
Yesterday
High -- | Low -- °F
Precip. -- in
6:18 AM 7:30 PM
Waning Gibbous, 89% visible
Pressure 30.03 in
Visibility 5.0 miles
Clouds Clear
Dew Point 71 °F
Humidity 98%
Rainfall 0.00 in
Snow Depth Not available.
UV 2 out of 12
Pollen 10.80 out of 12
Air Quality Not available.
Flu Activity Not available.
METAR KRYV 011315Z AUTO 20004KT 5SM BR CLR 22/22 A3003 RMK AO2 T02230223
Pressure 30.03 in
Visibility 5.0 miles
Clouds Clear
Dew Point 71 °F
Humidity 98%
Rainfall 0.00 in
Snow Depth Not available.
UV 2 out of 12
Pollen 10.80 out of 12
Air Quality Not available.
Flu Activity Not available.
METAR KRYV 011315Z AUTO 20004KT 5SM BR CLR 22/22 A3003 RMK AO2 T02230223

10-Day Weather Forecast

×

Almanac

Astronomy

Sep. 01, 2015 Rise Set
Actual Time
Civil Twilight
Nautical Twilight
Astronomical Twilight
Moon
Length of Visible Light
Length of Day
Tomorrow will be .
, % of the Moon is Illuminated

Today's Extremes

State Highs State Lows

Community

WunderPhotos

Upload Photos

1,851,513 photos uploaded!

WunderBlogs® & News

Nearby

Air Quality

  Air Quality AQ Index Pollutant
Not available.

Snow Depth

Station Depth Elevation

Earthquake Activity

City Distance Mag. Time & Date
Minimum magnitude displayed is 2.5.

Coastal Water Temperatures

Place Temperature

Stations

Nearby Weather Stations

Station Location Temp. Windchill Dew Point Humidity Wind Precip. Elev Updated Type